Time;durP1;ratioP1;P1;durP2;ratioP2;P2;SDS_P1;SDS_P2;PMS_P1;PMS_P2;Temp;Humidity;BMP_temperature;BMP_pressure;BME280_temperature;BME280_humidity;BME280_pressure;Samples;Min_cycle;Max_cycle;Signal;HPM_P1;HPM_P2
2024/02/02 00:01:23;;;;;;;18.58;3.33;;;;;;;5.96;100.00;101978.09;5169037;28;20101;-72
2024/02/02 00:03:54;;;;;;;22.13;3.30;;;;;;;6.05;100.00;101978.16;5165806;28;20034;-72
2024/02/02 00:06:24;;;;;;;22.15;3.17;;;;;;;6.15;99.98;101973.03;5163633;28;20423;-72
2024/02/02 00:08:54;;;;;;;23.08;3.55;;;;;;;6.19;99.75;101973.88;5166203;28;20037;-73
2024/02/02 00:11:25;;;;;;;24.48;2.95;;;;;;;6.10;100.00;101966.06;5164208;28;20038;-72
2024/02/02 00:13:55;;;;;;;25.98;3.65;;;;;;;6.12;99.16;101965.19;5162183;28;20026;-71
2024/02/02 00:16:26;;;;;;;14.23;2.50;;;;;;;6.18;99.48;101960.06;5166310;28;20038;-72
2024/02/02 00:18:56;;;;;;;14.48;2.80;;;;;;;6.28;99.15;101950.59;5165025;28;20033;-72
2024/02/02 00:21:26;;;;;;;24.33;3.13;;;;;;;6.23;98.17;101947.09;5162283;28;20033;-72
2024/02/02 00:23:57;;;;;;;17.48;3.17;;;;;;;6.24;97.73;101954.03;5162588;28;20398;-73
2024/02/02 00:26:27;;;;;;;13.05;3.00;;;;;;;6.27;98.19;101952.28;5164101;28;20026;-72
2024/02/02 00:28:57;;;;;;;19.75;2.90;;;;;;;6.24;98.52;101948.84;5165511;28;20030;-72
2024/02/02 00:31:28;;;;;;;17.63;2.90;;;;;;;6.30;97.34;101948.84;5159996;28;20085;-72
2024/02/02 00:33:58;;;;;;;19.38;2.60;;;;;;;6.28;97.73;101958.38;5166565;28;20037;-73
2024/02/02 00:36:28;;;;;;;18.75;2.80;;;;;;;6.28;97.14;101955.78;5164142;28;20018;-72
2024/02/02 00:38:59;;;;;;;18.25;3.72;;;;;;;6.35;96.82;101950.59;5162089;28;20026;-73
2024/02/02 00:41:29;;;;;;;17.50;3.38;;;;;;;6.30;97.13;101964.44;5165219;28;20026;-72
2024/02/02 00:43:59;;;;;;;20.15;3.28;;;;;;;6.25;97.82;101966.16;5161205;28;20067;-72
2024/02/02 00:46:30;;;;;;;30.15;3.53;;;;;;;6.28;98.11;101964.41;5163849;28;20741;-72
2024/02/02 00:49:01;;;;;;;24.60;2.90;;;;;;;6.32;97.19;101960.09;5159863;28;20092;-72
2024/02/02 00:51:31;;;;;;;20.92;3.13;;;;;;;6.35;97.52;101958.41;5164219;28;20041;-72
2024/02/02 00:54:02;;;;;;;21.20;2.90;;;;;;;6.31;97.88;101950.59;5165585;28;20042;-73
2024/02/02 00:56:32;;;;;;;23.60;3.20;;;;;;;6.30;98.22;101944.53;5161784;28;20034;-72
2024/02/02 00:59:03;;;;;;;19.63;3.17;;;;;;;6.30;97.51;101943.66;5165901;28;20027;-72
2024/02/02 01:01:33;;;;;;;18.58;2.70;;;;;;;6.37;97.18;101946.28;5165930;28;20119;-71
2024/02/02 01:04:03;;;;;;;18.85;2.80;;;;;;;6.49;96.57;101940.25;5162847;28;20674;-72
2024/02/02 01:06:34;;;;;;;20.35;2.60;;;;;;;6.44;96.35;101940.25;5162229;28;20567;-72
2024/02/02 01:09:05;;;;;;;20.70;2.58;;;;;;;6.37;96.19;101937.63;5159354;28;20026;-70
2024/02/02 01:11:35;;;;;;;18.38;3.25;;;;;;;6.30;96.93;101938.47;5160053;28;20040;-70
2024/02/02 01:14:05;;;;;;;24.63;3.00;;;;;;;6.37;97.50;101940.22;5159395;28;20022;-71
2024/02/02 01:16:36;;;;;;;19.83;2.92;;;;;;;6.39;96.15;101941.97;5166055;28;20049;-72
2024/02/02 01:19:06;;;;;;;22.08;2.80;;;;;;;6.29;97.05;101937.59;5160441;28;20069;-72
2024/02/02 01:21:37;;;;;;;19.15;2.47;;;;;;;6.31;96.83;101940.19;5162097;28;20027;-72
2024/02/02 01:24:07;;;;;;;17.77;2.30;;;;;;;6.39;96.60;101948.91;5165964;28;20033;-72
2024/02/02 01:26:38;;;;;;;17.90;2.63;;;;;;;6.40;96.78;101948.03;5160117;28;20038;-72
2024/02/02 01:29:08;;;;;;;16.08;3.35;;;;;;;6.36;96.06;101956.66;5160406;28;20022;-71
2024/02/02 01:31:39;;;;;;;24.02;3.10;;;;;;;6.45;95.83;101956.69;5160231;28;20389;-72
2024/02/02 01:34:09;;;;;;;23.35;3.00;;;;;;;6.37;95.24;101958.38;5162309;28;20026;-72
2024/02/02 01:36:40;;;;;;;23.08;2.88;;;;;;;6.41;95.26;101949.78;5158717;28;20026;-72
2024/02/02 01:39:11;;;;;;;14.15;2.55;;;;;;;6.37;95.15;101953.19;5162545;28;20100;-72
2024/02/02 01:41:44;;;;;;;14.70;2.90;;;;;;;6.32;95.80;101957.50;5162455;28;20080;-71
2024/02/02 01:44:14;;;;;;;13.82;2.70;;;;;;;6.39;95.57;101946.31;5166150;28;20037;-73
2024/02/02 01:46:46;;;;;;;15.02;2.78;;;;;;;6.44;94.71;101949.78;5160034;28;20387;-72
2024/02/02 01:49:17;;;;;;;21.77;3.30;;;;;;;6.39;94.73;101949.75;5161029;28;20026;-72
2024/02/02 01:51:47;;;;;;;22.08;3.33;;;;;;;6.35;94.92;101957.50;5160098;28;20038;-71
2024/02/02 01:54:18;;;;;;;21.15;4.22;;;;;;;6.44;95.00;101958.41;5162400;28;20041;-72
2024/02/02 01:56:48;;;;;;;15.85;3.13;;;;;;;6.35;95.28;101953.22;5161025;28;20030;-72
2024/02/02 01:59:19;;;;;;;26.08;3.70;;;;;;;6.39;94.88;101949.75;5160249;28;20033;-72
2024/02/02 02:01:50;;;;;;;29.17;4.30;;;;;;;6.39;94.23;101964.47;5159252;28;20030;-72
2024/02/02 02:04:20;;;;;;;19.20;3.25;;;;;;;6.38;94.81;101957.53;5165074;28;20069;-72
2024/02/02 02:06:51;;;;;;;18.90;3.63;;;;;;;6.29;95.68;101962.69;5164174;28;20045;-73
2024/02/02 02:09:21;;;;;;;19.27;3.25;;;;;;;6.36;94.79;101967.91;5161988;28;20034;-72
2024/02/02 02:11:52;;;;;;;24.27;4.38;;;;;;;6.36;94.92;101967.03;5161714;28;20026;-71
2024/02/02 02:14:22;;;;;;;21.17;4.10;;;;;;;6.31;95.56;101960.97;5165843;28;20045;-73
2024/02/02 02:16:52;;;;;;;23.00;4.30;;;;;;;6.32;96.17;101941.94;5161058;28;20088;-72
2024/02/02 02:19:23;;;;;;;14.82;3.88;;;;;;;6.45;95.08;101941.13;5162444;28;20454;-73
2024/02/02 02:21:53;;;;;;;20.25;4.18;;;;;;;6.42;94.83;101933.31;5164471;28;20103;-72
2024/02/02 02:24:24;;;;;;;21.17;4.60;;;;;;;6.35;95.26;101921.16;5163317;28;20038;-72
2024/02/02 02:26:54;;;;;;;20.05;4.68;;;;;;;6.35;95.94;101923.75;5162013;28;20030;-72
2024/02/02 02:29:24;;;;;;;18.40;4.13;;;;;;;6.28;95.59;101920.28;5161645;28;20030;-72
2024/02/02 02:31:55;;;;;;;20.25;5.05;;;;;;;6.17;96.86;101908.13;5166415;28;20030;-72
2024/02/02 02:34:26;;;;;;;26.52;4.97;;;;;;;6.28;96.62;101903.84;5165397;28;20763;-72
2024/02/02 02:36:56;;;;;;;15.57;4.13;;;;;;;6.27;96.30;101902.97;5161623;28;20396;-72
2024/02/02 02:39:27;;;;;;;16.00;4.28;;;;;;;6.27;96.40;101896.94;5159245;28;20502;-71
2024/02/02 02:41:57;;;;;;;19.30;4.05;;;;;;;6.24;96.89;101891.72;5159589;28;20615;-71
2024/02/02 02:44:27;;;;;;;18.08;3.50;;;;;;;6.22;96.99;101883.09;5160125;28;20546;-72
2024/02/02 02:46:58;;;;;;;22.02;4.10;;;;;;;6.10;97.52;101880.44;5159308;28;20477;-72
2024/02/02 02:49:28;;;;;;;20.63;5.60;;;;;;;6.01;97.76;101882.97;5161177;28;20022;-72
2024/02/02 02:51:58;;;;;;;27.73;4.40;;;;;;;6.03;98.18;101881.25;5160784;28;20037;-72
2024/02/02 02:54:29;;;;;;;20.55;4.43;;;;;;;6.02;98.16;101871.75;5163334;28;20028;-73
2024/02/02 02:57:00;;;;;;;17.67;4.07;;;;;;;5.97;98.08;101878.66;5160835;28;20423;-73
2024/02/02 02:59:32;;;;;;;14.43;3.22;;;;;;;5.95;97.42;101868.25;5159696;28;20057;-73
2024/02/02 03:02:03;;;;;;;22.45;4.05;;;;;;;5.87;98.55;101869.97;5162123;28;20612;-71
2024/02/02 03:04:33;;;;;;;19.00;4.10;;;;;;;5.81;99.27;101882.03;5164701;28;20512;-72
2024/02/02 03:07:04;;;;;;;15.95;3.60;;;;;;;5.91;98.78;101881.22;5162141;28;20249;-73
2024/02/02 03:09:35;;;;;;;22.35;4.30;;;;;;;5.87;99.03;101874.28;5166367;28;20038;-72
2024/02/02 03:12:06;;;;;;;18.73;3.85;;;;;;;5.85;98.76;101883.78;5167922;28;20427;-71
2024/02/02 03:14:36;;;;;;;27.25;3.58;;;;;;;5.83;99.62;101878.59;5171512;28;20033;-72
2024/02/02 03:17:07;;;;;;;20.90;3.90;;;;;;;5.91;98.17;101876.91;5166264;28;20030;-71
2024/02/02 03:19:37;;;;;;;17.10;3.60;;;;;;;5.89;98.96;101882.97;5167494;28;20034;-72
2024/02/02 03:22:07;;;;;;;18.55;3.50;;;;;;;5.94;98.05;101882.09;5164559;28;20065;-71
2024/02/02 03:24:38;;;;;;;23.60;3.75;;;;;;;5.89;98.38;101886.41;5171210;28;20479;-72
2024/02/02 03:27:08;;;;;;;17.67;3.75;;;;;;;5.90;98.10;101893.31;5165765;28;20555;-71
2024/02/02 03:29:38;;;;;;;16.23;3.67;;;;;;;5.93;98.40;101889.88;5168014;28;20030;-72
2024/02/02 03:32:10;;;;;;;21.10;4.28;;;;;;;5.95;98.04;101891.59;5167841;28;20029;-71
2024/02/02 03:34:40;;;;;;;17.10;3.60;;;;;;;5.94;98.52;101882.09;5171860;28;20061;-72
2024/02/02 03:37:10;;;;;;;20.23;3.78;;;;;;;5.92;98.44;101883.81;5166227;28;20034;-71
2024/02/02 03:39:41;;;;;;;19.92;3.90;;;;;;;6.03;97.68;101879.53;5170029;28;20042;-72
2024/02/02 03:42:14;;;;;;;23.48;4.00;;;;;;;6.03;98.20;101886.44;5169223;28;20113;-71
2024/02/02 03:44:45;;;;;;;18.75;4.18;;;;;;;6.06;98.57;101886.50;5170195;28;20057;-72
2024/02/02 03:47:15;;;;;;;18.50;4.03;;;;;;;6.06;97.05;101894.28;5168492;28;20022;-72
2024/02/02 03:49:45;;;;;;;27.98;4.88;;;;;;;5.95;98.04;101882.97;5170868;28;20492;-73
2024/02/02 03:52:16;;;;;;;22.90;4.85;;;;;;;5.96;98.73;101885.59;5170029;28;20357;-71
2024/02/02 03:54:46;;;;;;;20.20;3.60;;;;;;;5.98;98.35;101881.25;5169782;28;20022;-72
2024/02/02 03:57:17;;;;;;;21.00;5.18;;;;;;;6.06;97.43;101873.50;5167510;28;20079;-72
2024/02/02 03:59:47;;;;;;;17.55;3.90;;;;;;;6.04;98.22;101868.31;5166658;28;20030;-72
2024/02/02 04:02:18;;;;;;;18.98;3.88;;;;;;;6.03;97.81;101860.50;5168956;28;20018;-71
2024/02/02 04:04:48;;;;;;;25.38;4.47;;;;;;;6.10;98.37;101857.94;5170253;28;20031;-72
2024/02/02 04:07:19;;;;;;;14.27;4.03;;;;;;;6.12;97.85;101855.34;5168071;28;20040;-72
2024/02/02 04:09:49;;;;;;;24.85;4.00;;;;;;;6.00;98.34;101858.78;5169416;28;20579;-71
2024/02/02 04:12:19;;;;;;;19.75;3.97;;;;;;;6.09;97.96;101860.53;5165656;28;20388;-71
2024/02/02 04:14:50;;;;;;;18.52;3.97;;;;;;;6.06;97.70;101855.34;5170368;28;20030;-72
2024/02/02 04:17:20;;;;;;;23.90;4.45;;;;;;;6.03;98.64;101858.78;5166867;28;20033;-71
2024/02/02 04:19:50;;;;;;;17.52;3.50;;;;;;;6.10;98.38;101855.34;5168246;28;20037;-72
2024/02/02 04:22:21;;;;;;;19.73;3.95;;;;;;;6.15;98.69;101852.75;5168117;28;20648;-72
2024/02/02 04:24:52;;;;;;;19.08;4.40;;;;;;;6.15;98.32;101865.75;5168215;28;20029;-71
2024/02/02 04:27:22;;;;;;;20.95;4.22;;;;;;;6.13;97.68;101859.69;5167694;28;20109;-71
2024/02/02 04:29:53;;;;;;;14.50;4.30;;;;;;;6.17;97.80;101854.50;5167147;28;20472;-72
2024/02/02 04:32:23;;;;;;;20.38;4.90;;;;;;;6.18;98.54;101850.16;5168099;28;20505;-71
2024/02/02 04:34:53;;;;;;;20.73;4.85;;;;;;;6.18;97.10;101850.16;5167071;28;20037;-71
2024/02/02 04:37:24;;;;;;;20.90;4.85;;;;;;;6.21;97.73;101842.38;5169490;28;20041;-71
2024/02/02 04:39:54;;;;;;;24.20;4.47;;;;;;;6.26;97.23;101838.09;5168548;28;20034;-71
2024/02/02 04:42:25;;;;;;;20.95;4.80;;;;;;;6.15;97.42;101834.59;5168126;28;20033;-72
2024/02/02 04:44:56;;;;;;;20.88;4.85;;;;;;;6.13;97.80;101841.50;5169114;28;20044;-71
2024/02/02 04:47:26;;;;;;;17.52;5.10;;;;;;;6.15;98.42;101850.16;5166999;28;20029;-71
2024/02/02 04:49:56;;;;;;;13.98;4.60;;;;;;;6.13;98.32;101834.63;5167428;28;20437;-71
2024/02/02 04:52:27;;;;;;;23.60;5.20;;;;;;;6.21;97.44;101819.91;5165137;28;20030;-71
2024/02/02 04:54:57;;;;;;;28.38;6.10;;;;;;;6.16;96.78;101825.94;5166304;28;20054;-71
2024/02/02 04:57:27;;;;;;;19.73;5.70;;;;;;;6.23;97.71;101822.50;5164376;28;20061;-72
2024/02/02 04:59:58;;;;;;;21.70;5.55;;;;;;;6.20;97.47;101828.56;5167618;28;20117;-72
2024/02/02 05:02:28;;;;;;;22.13;5.57;;;;;;;6.25;98.09;101831.16;5168237;28;20400;-71
2024/02/02 05:04:59;;;;;;;22.33;6.15;;;;;;;6.22;97.03;101815.59;5166881;28;20507;-71
2024/02/02 05:07:29;;;;;;;21.63;6.15;;;;;;;6.20;98.01;101809.50;5167938;28;20030;-71
2024/02/02 05:09:59;;;;;;;21.17;6.05;;;;;;;6.32;96.96;101801.75;5168946;28;20053;-72
2024/02/02 05:12:30;;;;;;;25.45;6.80;;;;;;;6.26;97.18;101792.22;5165858;28;20030;-72
2024/02/02 05:15:00;;;;;;;19.33;6.32;;;;;;;6.27;97.05;101785.31;5166876;28;20037;-71
2024/02/02 05:17:30;;;;;;;18.15;6.60;;;;;;;6.36;97.13;101778.41;5168305;28;20346;-71
2024/02/02 05:20:04;;;;;;;24.23;7.50;;;;;;;6.31;96.08;101781.84;5165249;28;20029;-72
2024/02/02 05:22:34;;;;;;;28.55;8.90;;;;;;;6.36;95.57;101767.13;5169895;28;20030;-72
2024/02/02 05:25:05;;;;;;;22.33;8.50;;;;;;;6.40;95.39;101767.13;5166553;28;20037;-71
2024/02/02 05:27:35;;;;;;;28.15;9.10;;;;;;;6.45;96.06;101767.16;5162992;28;20085;-71
2024/02/02 05:30:06;;;;;;;26.50;9.45;;;;;;;6.50;94.70;101757.63;5163570;28;20250;-72
2024/02/02 05:32:36;;;;;;;30.15;10.65;;;;;;;6.49;94.17;101753.28;5167831;28;20121;-72
2024/02/02 05:35:07;;;;;;;34.15;10.13;;;;;;;6.50;94.19;101755.91;5168674;28;20113;-71
2024/02/02 05:37:37;;;;;;;31.10;10.20;;;;;;;6.45;94.01;101756.75;5168072;28;20072;-72
2024/02/02 05:40:08;;;;;;;26.30;9.55;;;;;;;6.48;93.76;101751.56;5166584;28;20038;-71
2024/02/02 05:42:38;;;;;;;32.28;9.60;;;;;;;6.52;93.88;101750.69;5167757;28;20018;-72
2024/02/02 05:45:09;;;;;;;22.75;9.32;;;;;;;6.61;92.97;101748.09;5162281;28;20203;-71
2024/02/02 05:47:39;;;;;;;30.48;9.38;;;;;;;6.55;92.85;101741.19;5163024;28;20105;-72
2024/02/02 05:50:10;;;;;;;33.40;10.07;;;;;;;6.62;92.55;101744.63;5164009;28;20037;-71
2024/02/02 05:52:40;;;;;;;33.72;10.73;;;;;;;6.51;93.21;101741.16;5178865;28;20137;-72
2024/02/02 05:55:11;;;;;;;27.10;9.52;;;;;;;6.45;92.68;101741.19;5163694;28;20042;-71
2024/02/02 05:57:42;;;;;;;30.80;11.10;;;;;;;6.45;93.27;101746.38;5165006;28;20042;-71
2024/02/02 06:00:13;;;;;;;27.77;10.13;;;;;;;6.57;92.70;101748.97;5163450;28;20026;-72
2024/02/02 06:02:46;;;;;;;24.38;9.82;;;;;;;6.57;92.69;101741.19;5166562;28;20334;-72
2024/02/02 06:05:17;;;;;;;29.58;10.32;;;;;;;6.58;91.90;101735.13;5165333;28;20302;-72
2024/02/02 06:07:47;;;;;;;31.98;10.38;;;;;;;6.53;91.97;101740.31;5164267;28;20042;-71
2024/02/02 06:10:18;;;;;;;25.40;10.02;;;;;;;6.58;91.06;101730.78;5169666;28;20030;-71
2024/02/02 06:12:48;;;;;;;23.58;9.55;;;;;;;6.65;90.74;101734.25;5168913;28;20038;-71
2024/02/02 06:15:18;;;;;;;23.77;9.50;;;;;;;6.65;91.14;101744.63;5168467;28;20019;-71
2024/02/02 06:17:48;;;;;;;25.55;9.45;;;;;;;6.63;90.38;101736.81;5163802;28;20046;-71
2024/02/02 06:20:19;;;;;;;25.92;8.60;;;;;;;6.64;90.66;101742.91;5164136;28;20026;-72
2024/02/02 06:22:49;;;;;;;22.98;8.60;;;;;;;6.58;90.95;101737.72;5168690;28;20041;-74
2024/02/02 06:25:20;;;;;;;22.88;8.32;;;;;;;6.69;90.12;101728.16;5166182;28;20033;-74
2024/02/02 06:27:50;;;;;;;23.13;8.40;;;;;;;6.68;90.66;101719.53;5163227;28;20041;-74
2024/02/02 06:30:20;;;;;;;30.45;8.90;;;;;;;6.67;90.13;101712.59;5161711;28;20574;-74
2024/02/02 06:32:59;;;;;;;33.65;9.48;;;;;;;6.55;90.63;101711.72;5163111;28;20057;-74
2024/02/02 06:35:29;;;;;;;24.77;8.15;;;;;;;6.62;90.85;101703.06;5165197;28;20114;-74
2024/02/02 06:38:00;;;;;;;21.42;8.40;;;;;;;6.58;90.84;101690.97;5162775;28;20030;-73
2024/02/02 06:40:30;;;;;;;27.52;8.40;;;;;;;6.46;91.11;101681.44;5160499;28;20052;-74
2024/02/02 06:43:00;;;;;;;21.58;7.45;;;;;;;6.55;90.31;101685.75;5169967;28;20026;-74
2024/02/02 06:45:31;;;;;;;22.75;7.53;;;;;;;6.63;89.54;101684.88;5169811;28;20033;-74
2024/02/02 06:48:01;;;;;;;19.50;6.72;;;;;;;6.71;89.70;101687.47;5165095;28;20107;-75
2024/02/02 06:50:32;;;;;;;28.67;7.40;;;;;;;6.68;89.63;101695.25;5167843;28;20087;-74
2024/02/02 06:53:02;;;;;;;24.10;6.55;;;;;;;6.68;90.20;101697.88;5168254;28;20028;-73
2024/02/02 06:55:33;;;;;;;26.55;6.85;;;;;;;6.63;90.00;101707.41;5163925;28;20454;-74
2024/02/02 06:58:36;;;;;;;13.20;6.10;;;;;;;6.64;90.09;101701.34;5164449;28;20388;-74
2024/02/02 07:01:10;;;;;;;14.60;5.78;;;;;;;6.71;90.18;101687.47;5163239;28;20034;-74
2024/02/02 07:03:41;;;;;;;19.23;5.65;;;;;;;6.70;89.74;101677.94;5166261;28;20588;-74
2024/02/02 07:06:11;;;;;;;21.10;5.20;;;;;;;6.61;90.76;101665.00;5164037;28;20025;-73
2024/02/02 07:08:42;;;;;;;18.02;6.20;;;;;;;6.69;90.60;101665.81;5160897;28;20040;-74
2024/02/02 07:11:12;;;;;;;21.58;4.80;;;;;;;6.71;90.11;101664.97;5167305;28;20041;-74
2024/02/02 07:13:49;;;;;;;17.20;4.63;;;;;;;6.68;90.15;101662.38;5171057;28;20042;-74
2024/02/02 07:16:27;;;;;;;15.25;4.20;;;;;;;6.67;90.79;101664.97;5166522;28;20029;-74
2024/02/02 07:18:57;;;;;;;16.40;3.75;;;;;;;6.69;89.99;101655.44;5172527;28;20467;-74
2024/02/02 07:21:30;;;;;;;16.45;4.38;;;;;;;6.68;90.02;101664.09;5171134;28;20036;-73
2024/02/02 07:24:03;;;;;;;15.52;3.30;;;;;;;6.79;88.88;101654.56;5171129;28;20037;-74
2024/02/02 07:26:37;;;;;;;14.25;3.78;;;;;;;6.75;89.65;101653.69;5168868;28;20484;-74
2024/02/02 07:29:36;;;;;;;14.13;3.03;;;;;;;6.74;90.07;101666.69;5174464;28;20034;-73
2024/02/02 07:32:07;;;;;;;15.65;3.30;;;;;;;6.77;89.88;101658.88;5164458;28;20032;-74
2024/02/02 07:34:42;;;;;;;12.85;2.88;;;;;;;6.76;89.39;101649.38;5163971;28;20030;-74
2024/02/02 07:37:41;;;;;;;9.63;2.58;;;;;;;6.86;89.30;101632.88;5164827;28;20030;-74
2024/02/02 07:40:30;;;;;;;15.07;3.10;;;;;;;6.85;88.63;101631.13;5165889;28;20042;-74
2024/02/02 07:43:00;;;;;;;17.25;3.28;;;;;;;6.92;88.47;101625.06;5174046;28;20555;-74
2024/02/02 07:45:30;;;;;;;9.48;2.60;;;;;;;6.90;88.61;101616.41;5162190;28;20037;-74
2024/02/02 07:48:00;;;;;;;16.77;2.75;;;;;;;6.94;88.94;101620.72;5166973;28;20060;-74
2024/02/02 07:50:31;;;;;;;11.48;2.67;;;;;;;6.89;88.78;101619.84;5171949;28;20029;-74
2024/02/02 07:53:01;;;;;;;19.33;3.30;;;;;;;6.96;89.40;101619.81;5167100;28;20068;-74
2024/02/02 07:55:32;;;;;;;16.65;2.97;;;;;;;6.95;89.14;101614.66;5166078;28;20036;-74
2024/02/02 07:58:02;;;;;;;13.32;3.00;;;;;;;6.92;89.31;101609.47;5164723;28;20060;-74
2024/02/02 08:00:32;;;;;;;12.38;2.58;;;;;;;7.08;89.03;101599.00;5163761;28;20033;-74
2024/02/02 08:03:05;;;;;;;14.27;3.03;;;;;;;7.07;88.23;101594.66;5168933;28;20026;-74
2024/02/02 08:05:37;;;;;;;11.38;2.97;;;;;;;7.00;88.87;101599.91;5168268;28;20041;-74
2024/02/02 08:08:08;;;;;;;14.02;2.85;;;;;;;6.95;88.94;101604.25;5169520;28;20378;-73
2024/02/02 08:10:41;;;;;;;16.55;3.25;;;;;;;6.96;88.80;101591.25;5166207;28;20100;-74
2024/02/02 08:13:13;;;;;;;9.18;2.70;;;;;;;7.10;87.79;101588.59;5164353;28;20401;-74
2024/02/02 08:15:44;;;;;;;9.48;2.60;;;;;;;7.11;88.15;101572.13;5168626;28;20546;-74
2024/02/02 08:18:14;;;;;;;18.08;2.97;;;;;;;7.08;88.40;101570.41;5167995;28;20056;-74
2024/02/02 08:20:46;;;;;;;15.10;3.80;;;;;;;7.06;88.87;101572.16;5168826;28;20042;-74
2024/02/02 08:23:17;;;;;;;14.32;2.75;;;;;;;7.02;89.18;101572.16;5164888;28;20033;-75
2024/02/02 08:25:47;;;;;;;17.30;3.58;;;;;;;7.13;88.30;101572.97;5164114;28;20037;-74
2024/02/02 08:28:17;;;;;;;15.98;2.78;;;;;;;7.17;87.67;101572.97;5169778;28;20033;-74
2024/02/02 08:30:48;;;;;;;20.48;3.78;;;;;;;7.21;87.04;101581.59;5171149;28;20401;-74
2024/02/02 08:33:19;;;;;;;13.68;3.60;;;;;;;7.27;86.28;101573.78;5167142;28;20454;-74
2024/02/02 08:35:49;;;;;;;17.85;3.92;;;;;;;7.32;85.86;101571.13;5168592;28;20030;-74
2024/02/02 08:38:19;;;;;;;19.20;3.13;;;;;;;7.30;85.47;101578.06;5165004;28;20057;-74
2024/02/02 08:40:50;;;;;;;12.43;3.08;;;;;;;7.28;86.39;101578.94;5168288;28;20042;-74
2024/02/02 08:43:21;;;;;;;14.55;3.83;;;;;;;7.39;85.57;101583.19;5169115;28;20116;-74
2024/02/02 08:46:12;;;;;;;11.82;2.88;;;;;;;7.40;85.32;101576.28;5164004;28;20030;-74
2024/02/02 08:48:48;;;;;;;14.82;2.80;;;;;;;7.36;86.11;101566.78;5168635;28;20029;-74
2024/02/02 08:51:21;;;;;;;11.80;2.47;;;;;;;7.41;85.32;101568.47;5168834;28;20498;-74
2024/02/02 08:54:10;;;;;;;15.45;2.45;;;;;;;7.37;85.94;101564.13;5166348;28;20483;-74
2024/02/02 08:57:17;;;;;;;12.38;3.00;;;;;;;7.43;84.74;101556.31;5167962;28;20034;-74
2024/02/02 08:59:52;;;;;;;16.58;3.00;;;;;;;7.49;85.23;101558.00;5158047;28;20677;-74
2024/02/02 09:02:51;;;;;;;17.42;2.25;;;;;;;7.57;84.45;101551.88;5167389;28;20121;-74
2024/02/02 09:05:24;;;;;;;13.38;2.58;;;;;;;7.65;84.95;101550.06;5162244;28;20065;-74
2024/02/02 09:08:22;;;;;;;12.30;2.78;;;;;;;7.63;85.30;101536.22;5166352;28;20454;-74
2024/02/02 09:10:59;;;;;;;15.85;2.85;;;;;;;7.81;84.34;101538.66;5167033;28;20049;-74
2024/02/02 09:13:32;;;;;;;14.98;2.53;;;;;;;7.85;83.91;101534.28;5167603;28;20034;-74
2024/02/02 09:16:04;;;;;;;17.42;2.80;;;;;;;7.87;84.23;101533.38;5166600;28;20117;-74
2024/02/02 09:19:00;;;;;;;14.00;2.95;;;;;;;7.89;84.06;101539.44;5164628;28;20038;-74
2024/02/02 09:21:34;;;;;;;14.93;2.80;;;;;;;7.88;83.79;101537.69;5162138;28;20100;-74
2024/02/02 09:24:12;;;;;;;15.15;2.80;;;;;;;7.99;83.90;101530.66;5167603;28;20330;-73
2024/02/02 09:26:51;;;;;;;12.02;2.63;;;;;;;7.98;83.30;101523.75;5287951;27;20410;-75
2024/02/02 09:29:22;;;;;;;13.63;2.53;;;;;;;8.01;84.04;101520.25;5287013;28;20140;-74
2024/02/02 09:31:52;;;;;;;14.60;2.85;;;;;;;8.04;83.36;101523.66;5282535;27;20030;-75
2024/02/02 09:34:26;;;;;;;12.05;1.90;;;;;;;8.18;83.73;101508.81;5285890;28;20395;-74
2024/02/02 09:36:56;;;;;;;15.93;2.80;;;;;;;8.04;83.07;101513.25;5283650;27;20027;-75
2024/02/02 09:39:45;;;;;;;15.98;2.72;;;;;;;8.18;83.05;101519.22;5287967;28;20027;-75
2024/02/02 09:42:34;;;;;;;11.02;2.53;;;;;;;8.18;83.27;101524.44;5285823;28;20032;-74
2024/02/02 09:45:11;;;;;;;12.00;2.53;;;;;;;8.14;83.40;101522.72;5285115;28;20015;-71
2024/02/02 09:48:02;;;;;;;15.32;2.60;;;;;;;8.14;82.20;101530.50;5284118;28;20028;-72
2024/02/02 09:50:56;;;;;;;16.35;2.72;;;;;;;8.07;81.89;101522.78;5289329;28;20114;-73
2024/02/02 09:53:42;;;;;;;14.63;3.13;;;;;;;8.21;82.66;101532.19;5286703;28;20124;-73
2024/02/02 09:56:36;;;;;;;14.27;2.58;;;;;;;8.24;82.93;101519.13;5283419;28;20076;-73
2024/02/02 09:59:25;;;;;;;10.82;2.05;;;;;;;8.29;82.60;101521.69;5284010;28;20027;-71
2024/02/02 10:02:24;;;;;;;14.10;3.10;;;;;;;8.37;82.22;101515.53;5281802;28;20027;-73
2024/02/02 10:05:27;;;;;;;13.20;2.80;;;;;;;8.52;81.69;101507.53;5289135;28;20023;-73
2024/02/02 10:08:06;;;;;;;13.88;2.67;;;;;;;8.56;81.78;101496.19;5285925;28;20076;-71
2024/02/02 10:10:55;;;;;;;17.90;3.17;;;;;;;8.54;81.81;101504.91;5285757;28;20048;-73
2024/02/02 10:13:48;;;;;;;11.07;2.80;;;;;;;8.74;80.99;101497.69;5283659;28;20031;-73
2024/02/02 10:16:37;;;;;;;12.07;2.60;;;;;;;8.78;81.18;101489.81;5284883;28;20020;-73
2024/02/02 10:19:11;;;;;;;16.42;3.03;;;;;;;8.82;80.61;101480.19;5286637;28;20522;-73
2024/02/02 10:22:26;;;;;;;17.45;3.35;;;;;;;8.85;80.41;101473.22;5287687;27;20027;-73
2024/02/02 10:25:15;;;;;;;10.65;3.13;;;;;;;8.88;79.82;101467.09;5285839;28;20073;-73
2024/02/02 10:28:30;;;;;;;14.52;2.85;;;;;;;8.94;80.07;101465.25;5284361;28;20381;-73
2024/02/02 10:31:00;;;;;;;13.27;2.63;;;;;;;9.09;79.86;101470.22;5255331;28;20059;-73
2024/02/02 10:33:57;;;;;;;13.95;3.08;;;;;;;9.07;79.63;101460.72;5240590;28;20081;-72
2024/02/02 10:36:51;;;;;;;16.05;3.38;;;;;;;9.12;79.58;101462.38;5269878;28;20089;-73
2024/02/02 10:39:45;;;;;;;17.45;2.92;;;;;;;9.12;79.17;101451.06;5269424;28;20023;-72
2024/02/02 10:42:34;;;;;;;11.63;2.80;;;;;;;9.01;79.63;101446.03;5273415;28;20056;-72
2024/02/02 10:45:12;;;;;;;14.00;2.60;;;;;;;9.13;79.14;101448.47;5270862;28;20042;-71
2024/02/02 10:47:54;;;;;;;17.80;3.35;;;;;;;9.15;79.98;101449.28;5269071;28;20079;-73
2024/02/02 10:50:40;;;;;;;19.98;3.45;;;;;;;9.02;79.84;101449.47;5272034;28;20035;-73
2024/02/02 10:53:31;;;;;;;10.68;3.40;;;;;;;9.15;79.96;101444.91;5265988;28;20039;-73
2024/02/02 10:56:26;;;;;;;18.10;3.00;;;;;;;8.79;80.24;101448.97;5265030;28;20131;-73
2024/02/02 10:59:21;;;;;;;10.07;2.70;;;;;;;8.83;81.10;101451.50;5270893;28;20373;-73
2024/02/02 11:02:04;;;;;;;14.25;3.63;;;;;;;8.83;80.74;101442.81;5267447;28;20058;-73
2024/02/02 11:04:49;;;;;;;15.15;3.20;;;;;;;8.82;81.46;101444.59;5268080;28;20081;-73
2024/02/02 11:07:28;;;;;;;14.90;3.70;;;;;;;8.62;82.03;101432.72;5268592;28;20031;-72
2024/02/02 11:10:13;;;;;;;12.38;3.53;;;;;;;8.77;81.90;101445.53;5270267;28;20032;-72
2024/02/02 11:12:58;;;;;;;14.15;3.20;;;;;;;8.71;82.25;101436.03;5269201;28;20062;-73
2024/02/02 11:15:44;;;;;;;15.80;3.30;;;;;;;8.63;82.18;101424.00;5270629;28;20024;-75
2024/02/02 11:18:43;;;;;;;10.18;3.17;;;;;;;8.81;82.54;101402.91;5271317;28;20024;-75
2024/02/02 11:21:50;;;;;;;14.90;2.80;;;;;;;8.83;82.68;101404.59;5273106;28;20023;-75
2024/02/02 11:24:33;;;;;;;12.02;3.03;;;;;;;8.71;82.96;101402.16;5267537;28;20047;-76
2024/02/02 11:27:17;;;;;;;11.82;3.15;;;;;;;8.88;83.23;101397.56;5264983;28;20531;-75
2024/02/02 11:30:07;;;;;;;15.63;3.63;;;;;;;8.83;83.21;101393.31;5268895;28;20036;-73
2024/02/02 11:33:09;;;;;;;14.15;3.60;;;;;;;8.87;82.66;101377.59;5264391;28;20051;-73
2024/02/02 11:36:02;;;;;;;13.75;2.72;;;;;;;8.90;83.13;101377.53;5266775;28;20024;-73
2024/02/02 11:39:02;;;;;;;11.88;3.08;;;;;;;8.92;82.96;101375.78;5268694;28;20504;-73
2024/02/02 11:41:37;;;;;;;18.25;4.28;;;;;;;8.94;82.68;101371.41;5263641;28;20032;-73
2024/02/02 11:44:11;;;;;;;13.55;3.22;;;;;;;8.98;82.46;101367.88;5265063;28;20036;-72
2024/02/02 11:46:44;;;;;;;14.05;3.58;;;;;;;8.99;82.91;101372.19;5265106;28;20050;-73
2024/02/02 11:49:23;;;;;;;17.95;3.55;;;;;;;9.03;82.99;101359.97;5266077;28;20024;-72
2024/02/02 11:52:03;;;;;;;16.42;3.40;;;;;;;8.95;82.84;101354.88;5263611;28;20501;-73
2024/02/02 11:55:14;;;;;;;19.52;3.92;;;;;;;9.07;82.99;101348.59;5272407;28;20118;-72
2024/02/02 11:57:50;;;;;;;13.07;3.70;;;;;;;9.21;82.53;101350.06;5263411;28;20505;-72
2024/02/02 12:00:52;;;;;;;17.08;3.45;;;;;;;9.24;83.27;101350.00;5266409;28;20027;-73